Time;durP1;ratioP1;P1;durP2;ratioP2;P2;SDS_P1;SDS_P2;PMS_P1;PMS_P2;Temp;Humidity;BMP_temperature;BMP_pressure;BME280_temperature;BME280_humidity;BME280_pressure;Samples;Min_cycle;Max_cycle;Signal;HPM_P1;HPM_P2
2022/10/15 00:02:16;;;;;;;;;;;19.40;62.40;;;;;;5072447;28;19920;-73
2022/10/15 00:04:41;;;;;;;;;;;19.40;62.30;;;;;;5071980;28;20368;-72
2022/10/15 00:07:07;;;;;;;;;;;19.40;62.30;;;;;;5071937;28;20015;-72
2022/10/15 00:09:32;;;;;;;;;;;19.40;62.30;;;;;;5073111;28;19964;-72
2022/10/15 00:11:58;;;;;;;;;;;19.40;62.30;;;;;;5073111;28;19964;-72
2022/10/15 00:14:24;;;;;;;;;;;19.40;62.30;;;;;;5072013;28;20292;-72
2022/10/15 00:16:49;;;;;;;;;;;19.40;62.30;;;;;;5073737;28;19969;-72
2022/10/15 00:19:15;;;;;;;;;;;19.40;62.30;;;;;;5093153;28;20441;-72
2022/10/15 00:21:40;;;;;;;;;;;19.30;62.20;;;;;;5075027;28;19969;-72
2022/10/15 00:24:06;;;;;;;;;;;19.40;62.30;;;;;;5093174;28;19974;-72
2022/10/15 00:26:32;;;;;;;;;;;19.30;62.20;;;;;;5075172;28;19920;-72
2022/10/15 00:28:59;;;;;;;;;;;19.30;62.20;;;;;;5075032;28;20363;-72
2022/10/15 00:31:26;;;;;;;;;;;19.30;62.20;;;;;;5075135;28;19938;-72
2022/10/15 00:33:53;;;;;;;;;;;19.40;62.20;;;;;;5075182;28;19920;-72
2022/10/15 00:36:20;;;;;;;;;;;19.30;62.20;;;;;;5093024;28;20010;-72
2022/10/15 00:38:46;;;;;;;;;;;19.30;62.20;;;;;;5074608;28;19924;-72
2022/10/15 00:41:13;;;;;;;;;;;19.30;62.20;;;;;;5074899;28;19924;-72
2022/10/15 00:43:41;;;;;;;;;;;19.30;62.20;;;;;;5074621;28;19923;-73
2022/10/15 00:46:14;;;;;;;;;;;19.30;62.20;;;;;;5074997;28;19920;-72
2022/10/15 00:48:40;;;;;;;;;;;19.30;62.20;;;;;;5092692;28;20391;-72
2022/10/15 00:51:05;;;;;;;;;;;19.30;62.20;;;;;;5075038;28;19976;-73
2022/10/15 00:53:31;;;;;;;;;;;19.20;62.20;;;;;;5074261;28;20010;-72
2022/10/15 00:55:57;;;;;;;;;;;19.20;62.20;;;;;;5092589;28;19985;-72
2022/10/15 00:58:27;;;;;;;;;;;19.20;62.20;;;;;;5074522;28;20023;-72
2022/10/15 01:00:53;;;;;;;;;;;19.20;62.20;;;;;;5074667;28;19971;-72
2022/10/15 01:03:19;;;;;;;;;;;19.30;62.20;;;;;;5074734;28;19920;-72
2022/10/15 01:05:45;;;;;;;;;;;19.20;62.20;;;;;;5092512;28;20292;-72
2022/10/15 01:08:11;;;;;;;;;;;19.20;62.20;;;;;;5092600;28;19920;-73
2022/10/15 01:10:42;;;;;;;;;;;19.20;62.20;;;;;;5074214;28;19927;-72
2022/10/15 01:16:10;;;;;;;;;;;19.20;62.20;;;;;;5126295;27;19935;-72
2022/10/15 01:18:39;;;;;;;;;;;19.10;62.10;;;;;;5125840;28;19955;-73
2022/10/15 01:21:15;;;;;;;;;;;19.20;62.20;;;;;;5109114;28;19920;-72
2022/10/15 01:23:50;;;;;;;;;;;19.20;62.20;;;;;;5109192;28;19980;-72
2022/10/15 01:29:13;;;;;;;;;;;19.10;62.20;;;;;;5165940;27;803314;-72
2022/10/15 01:31:42;;;;;;;;;;;19.20;62.20;;;;;;5195181;27;19924;-72
2022/10/15 01:34:27;;;;;;;;;;;19.20;62.20;;;;;;5176262;27;19942;-73
2022/10/15 01:37:00;;;;;;;;;;;19.10;62.20;;;;;;5174351;27;19919;-72
2022/10/15 01:39:30;;;;;;;;;;;19.20;62.20;;;;;;5174281;27;19919;-72
2022/10/15 01:41:59;;;;;;;;;;;19.10;62.20;;;;;;5174406;27;20013;-72
2022/10/15 01:44:42;;;;;;;;;;;19.10;62.20;;;;;;5174262;27;19965;-72
2022/10/15 01:47:13;;;;;;;;;;;19.10;62.20;;;;;;5174279;27;19933;-73
2022/10/15 01:49:41;;;;;;;;;;;19.20;62.20;;;;;;5174188;27;19926;-72
2022/10/15 01:52:09;;;;;;;;;;;19.10;62.20;;;;;;5174321;27;19919;-72
2022/10/15 01:54:35;;;;;;;;;;;19.10;62.20;;;;;;5192812;27;20319;-72
2022/10/15 01:57:01;;;;;;;;;;;19.10;62.20;;;;;;5174413;27;19926;-72
2022/10/15 01:59:30;;;;;;;;;;;19.10;62.20;;;;;;5174245;27;19975;-72
2022/10/15 02:01:57;;;;;;;;;;;19.00;62.10;;;;;;5174140;27;19988;-72
2022/10/15 02:04:27;;;;;;;;;;;19.10;62.20;;;;;;5173853;27;19926;-72
2022/10/15 02:09:55;;;;;;;;;;;19.00;62.10;;;;;;5122516;27;19912;-72
2022/10/15 02:12:41;;;;;;;;;;;19.10;62.20;;;;;;5088705;28;20178;-72
2022/10/15 02:15:10;;;;;;;;;;;19.10;62.20;;;;;;5088317;28;19947;-72
2022/10/15 02:20:19;;;;;;;;;;;19.00;62.20;;;;;;5122856;27;19913;-72
2022/10/15 02:22:48;;;;;;;;;;;19.00;62.20;;;;;;5088761;28;19920;-72
2022/10/15 02:25:16;;;;;;;;;;;19.00;62.10;;;;;;5088570;28;19927;-72
2022/10/15 02:27:44;;;;;;;;;;;19.00;62.20;;;;;;5088479;28;19926;-72
2022/10/15 02:30:11;;;;;;;;;;;19.00;62.20;;;;;;5088744;28;19920;-72
2022/10/15 02:32:39;;;;;;;;;;;19.00;62.10;;;;;;5088306;28;20011;-73
2022/10/15 02:35:06;;;;;;;;;;;19.00;62.20;;;;;;5088719;28;19921;-73
2022/10/15 02:37:32;;;;;;;;;;;19.00;62.20;;;;;;5088518;28;19959;-72
2022/10/15 02:39:58;;;;;;;;;;;19.00;62.10;;;;;;5088201;28;19928;-73
2022/10/15 02:42:24;;;;;;;;;;;19.00;62.10;;;;;;5088708;28;19928;-73
2022/10/15 02:44:49;;;;;;;;;;;19.00;62.10;;;;;;5088340;28;19925;-72
2022/10/15 02:47:15;;;;;;;;;;;19.00;62.20;;;;;;5088380;28;20156;-72
2022/10/15 02:49:40;;;;;;;;;;;18.90;62.10;;;;;;5089556;28;19927;-73
2022/10/15 02:52:06;;;;;;;;;;;18.90;62.10;;;;;;5089493;28;19963;-72
2022/10/15 02:54:32;;;;;;;;;;;18.90;62.10;;;;;;5087933;28;20371;-72
2022/10/15 02:56:57;;;;;;;;;;;18.90;62.10;;;;;;5087988;28;19927;-72
2022/10/15 02:59:23;;;;;;;;;;;18.90;62.10;;;;;;5087910;28;20121;-72
2022/10/15 03:01:48;;;;;;;;;;;19.00;62.20;;;;;;5087856;28;19924;-72
2022/10/15 03:04:14;;;;;;;;;;;18.90;62.10;;;;;;5089010;28;20010;-73
2022/10/15 03:06:39;;;;;;;;;;;18.90;62.10;;;;;;5087800;28;19999;-72
2022/10/15 03:09:05;;;;;;;;;;;18.90;62.10;;;;;;5088960;28;19920;-72
2022/10/15 03:11:30;;;;;;;;;;;18.90;62.10;;;;;;5088056;28;20265;-72
2022/10/15 03:13:56;;;;;;;;;;;18.90;62.10;;;;;;5087636;28;19920;-72
2022/10/15 03:16:21;;;;;;;;;;;18.90;62.10;;;;;;5087593;28;19920;-72
2022/10/15 03:18:47;;;;;;;;;;;18.90;62.10;;;;;;5087008;28;20015;-73
2022/10/15 03:21:12;;;;;;;;;;;18.90;62.10;;;;;;5087528;28;19926;-72
2022/10/15 03:23:38;;;;;;;;;;;18.80;62.10;;;;;;5087472;28;19924;-72
2022/10/15 03:26:03;;;;;;;;;;;18.90;62.10;;;;;;5087440;28;19924;-73
2022/10/15 03:28:29;;;;;;;;;;;18.90;62.10;;;;;;5087325;28;19957;-72
2022/10/15 03:30:54;;;;;;;;;;;18.90;62.10;;;;;;5077594;28;19973;-72
2022/10/15 03:33:23;;;;;;;;;;;18.90;62.10;;;;;;5073765;28;19921;-72
2022/10/15 03:35:49;;;;;;;;;;;18.90;62.10;;;;;;5072127;28;19920;-72
2022/10/15 03:38:14;;;;;;;;;;;18.90;62.20;;;;;;5074915;28;20023;-73
2022/10/15 03:40:40;;;;;;;;;;;18.80;62.10;;;;;;5073783;28;20031;-72
2022/10/15 03:43:05;;;;;;;;;;;18.90;62.10;;;;;;5073667;28;19921;-72
2022/10/15 03:45:31;;;;;;;;;;;18.80;62.10;;;;;;5074870;28;19928;-72
2022/10/15 03:47:56;;;;;;;;;;;18.80;62.20;;;;;;5073850;28;20280;-72
2022/10/15 03:50:22;;;;;;;;;;;18.80;62.10;;;;;;5073395;28;19928;-72
2022/10/15 03:52:47;;;;;;;;;;;18.80;62.10;;;;;;5073447;28;20078;-72
2022/10/15 03:55:13;;;;;;;;;;;18.80;62.10;;;;;;5074651;28;19971;-72
2022/10/15 03:57:39;;;;;;;;;;;18.80;62.10;;;;;;5073614;28;20445;-72
2022/10/15 04:00:05;;;;;;;;;;;18.80;62.10;;;;;;5073496;28;20022;-72
2022/10/15 04:02:31;;;;;;;;;;;18.80;62.20;;;;;;5073530;28;19920;-72
2022/10/15 04:04:56;;;;;;;;;;;18.80;62.10;;;;;;5073119;28;19928;-72
2022/10/15 04:07:22;;;;;;;;;;;18.80;62.10;;;;;;5074422;28;19927;-72
2022/10/15 04:09:48;;;;;;;;;;;18.90;62.20;;;;;;5073115;28;19967;-73
2022/10/15 04:12:14;;;;;;;;;;;18.80;62.10;;;;;;5073302;28;19966;-72
2022/10/15 04:14:39;;;;;;;;;;;18.80;62.10;;;;;;5073023;28;19966;-72
2022/10/15 04:17:05;;;;;;;;;;;18.80;62.20;;;;;;5072985;28;19920;-72
2022/10/15 04:19:30;;;;;;;;;;;18.80;62.20;;;;;;5073720;28;19928;-72
2022/10/15 04:21:56;;;;;;;;;;;18.80;62.10;;;;;;5073147;28;19920;-73
2022/10/15 04:24:22;;;;;;;;;;;18.70;62.10;;;;;;5072853;28;20299;-72
2022/10/15 04:26:47;;;;;;;;;;;18.70;62.10;;;;;;5073058;28;19924;-72
2022/10/15 04:29:13;;;;;;;;;;;18.80;62.20;;;;;;5073035;28;19928;-72
2022/10/15 04:31:38;;;;;;;;;;;18.70;62.10;;;;;;5072833;28;20261;-72
2022/10/15 04:34:04;;;;;;;;;;;18.70;62.10;;;;;;5072693;28;19964;-72
2022/10/15 04:36:29;;;;;;;;;;;18.70;62.00;;;;;;5072470;28;19928;-72
2022/10/15 04:38:55;;;;;;;;;;;18.70;62.10;;;;;;5073775;28;19932;-72
2022/10/15 04:41:20;;;;;;;;;;;18.70;62.10;;;;;;5072133;28;19920;-72
2022/10/15 04:43:46;;;;;;;;;;;18.60;62.00;;;;;;5072362;28;20379;-72
2022/10/15 04:46:12;;;;;;;;;;;18.70;62.10;;;;;;5072664;28;19920;-72
2022/10/15 04:48:38;;;;;;;;;;;18.70;62.10;;;;;;5072717;28;19928;-72
2022/10/15 04:51:05;;;;;;;;;;;18.70;62.10;;;;;;5072285;28;19920;-72
2022/10/15 04:53:30;;;;;;;;;;;18.70;62.10;;;;;;5071502;28;20368;-72
2022/10/15 04:56:00;;;;;;;;;;;18.60;62.00;;;;;;5072235;28;19920;-73
2022/10/15 04:58:25;;;;;;;;;;;18.70;62.10;;;;;;5072313;28;19924;-72
2022/10/15 05:00:51;;;;;;;;;;;18.70;62.10;;;;;;5072133;28;19927;-73
2022/10/15 05:03:16;;;;;;;;;;;18.70;62.10;;;;;;5072330;28;19920;-72
2022/10/15 05:05:42;;;;;;;;;;;18.70;62.10;;;;;;5073203;28;20008;-72
2022/10/15 05:08:07;;;;;;;;;;;18.70;62.10;;;;;;5071977;28;20015;-73
2022/10/15 05:10:33;;;;;;;;;;;18.60;62.00;;;;;;5071969;28;19946;-72
2022/10/15 05:12:58;;;;;;;;;;;18.70;62.00;;;;;;5071127;28;19932;-72
2022/10/15 05:15:24;;;;;;;;;;;18.60;62.00;;;;;;5071939;28;19928;-72
2022/10/15 05:17:50;;;;;;;;;;;18.10;61.80;;;;;;5071684;28;20398;-73
2022/10/15 05:20:15;;;;;;;;;;;18.70;62.10;;;;;;5071565;28;19924;-72
2022/10/15 05:22:41;;;;;;;;;;;18.60;62.00;;;;;;5071874;28;19920;-72
2022/10/15 05:25:07;;;;;;;;;;;18.60;62.00;;;;;;5071699;28;20440;-72
2022/10/15 05:27:32;;;;;;;;;;;18.50;61.90;;;;;;5071836;28;19969;-72
2022/10/15 05:29:58;;;;;;;;;;;18.60;62.00;;;;;;5071875;28;19920;-72
2022/10/15 05:32:23;;;;;;;;;;;18.60;62.00;;;;;;5072817;28;20391;-72
2022/10/15 05:34:49;;;;;;;;;;;18.60;62.00;;;;;;5071721;28;20025;-73
2022/10/15 05:37:14;;;;;;;;;;;18.60;62.00;;;;;;5071724;28;20394;-73
2022/10/15 05:39:40;;;;;;;;;;;18.60;62.00;;;;;;5071900;28;20392;-72
2022/10/15 05:42:05;;;;;;;;;;;18.70;62.10;;;;;;5071218;28;19966;-72
2022/10/15 05:44:31;;;;;;;;;;;18.60;62.00;;;;;;5071555;28;19924;-72
2022/10/15 05:46:56;;;;;;;;;;;18.60;62.00;;;;;;5071660;28;19920;-72
2022/10/15 05:49:22;;;;;;;;;;;18.60;62.00;;;;;;5070769;28;19986;-72
2022/10/15 05:51:47;;;;;;;;;;;18.60;62.00;;;;;;5071533;28;20384;-72
2022/10/15 05:54:13;;;;;;;;;;;18.60;62.00;;;;;;5071192;28;20368;-72
2022/10/15 05:56:38;;;;;;;;;;;18.60;62.00;;;;;;5072703;28;19924;-73
2022/10/15 05:59:04;;;;;;;;;;;18.50;62.00;;;;;;5072369;28;19925;-72
2022/10/15 06:01:29;;;;;;;;;;;18.60;62.00;;;;;;5071158;28;19970;-72
2022/10/15 06:03:55;;;;;;;;;;;18.60;62.00;;;;;;5072408;28;20097;-72
2022/10/15 06:06:23;;;;;;;;;;;18.60;62.00;;;;;;5072395;28;19920;-72
2022/10/15 06:08:49;;;;;;;;;;;18.50;62.00;;;;;;5072255;28;19925;-73
2022/10/15 06:11:15;;;;;;;;;;;18.50;62.00;;;;;;5071115;28;20276;-73
2022/10/15 06:13:41;;;;;;;;;;;18.50;62.00;;;;;;5071001;28;20018;-73
2022/10/15 06:16:07;;;;;;;;;;;18.50;62.00;;;;;;5071253;28;20387;-73
2022/10/15 06:18:33;;;;;;;;;;;18.50;62.00;;;;;;5071879;28;19983;-72
2022/10/15 06:20:58;;;;;;;;;;;18.50;62.00;;;;;;5070892;28;19992;-73
2022/10/15 06:23:24;;;;;;;;;;;18.50;62.00;;;;;;5072096;28;19927;-72
2022/10/15 06:25:49;;;;;;;;;;;18.50;62.00;;;;;;5071214;28;19920;-72
2022/10/15 06:28:15;;;;;;;;;;;18.50;62.00;;;;;;5071197;28;20388;-73
2022/10/15 06:30:42;;;;;;;;;;;18.50;62.00;;;;;;5070829;28;19924;-73
2022/10/15 06:33:07;;;;;;;;;;;18.50;62.00;;;;;;5072331;28;20302;-72
2022/10/15 06:35:34;;;;;;;;;;;18.50;62.00;;;;;;5071122;28;19921;-73
2022/10/15 06:38:00;;;;;;;;;;;18.50;62.00;;;;;;5054157;28;19959;-73
2022/10/15 06:40:26;;;;;;;;;;;18.50;62.00;;;;;;5072235;28;20010;-72
2022/10/15 06:42:51;;;;;;;;;;;18.50;62.10;;;;;;5071066;28;20432;-72
2022/10/15 06:45:17;;;;;;;;;;;18.50;62.10;;;;;;5071008;28;20402;-72
2022/10/15 06:47:42;;;;;;;;;;;18.50;62.00;;;;;;5070727;28;19975;-73
2022/10/15 06:50:08;;;;;;;;;;;18.50;62.00;;;;;;5070671;28;19931;-73
2022/10/15 06:52:34;;;;;;;;;;;18.50;62.00;;;;;;5071954;28;19970;-72
2022/10/15 06:54:59;;;;;;;;;;;18.40;62.00;;;;;;5070696;28;19927;-73
2022/10/15 06:57:26;;;;;;;;;;;18.50;62.00;;;;;;5070612;28;19920;-73
2022/10/15 06:59:52;;;;;;;;;;;18.50;62.00;;;;;;5071833;28;19943;-74
2022/10/15 07:02:18;;;;;;;;;;;18.40;62.00;;;;;;5070540;28;19924;-73
2022/10/15 07:04:44;;;;;;;;;;;18.40;62.00;;;;;;5070845;28;19933;-73
2022/10/15 07:07:09;;;;;;;;;;;18.50;62.10;;;;;;5075580;28;19920;-73
2022/10/15 07:09:35;;;;;;;;;;;18.40;62.00;;;;;;5074271;28;19928;-73
2022/10/15 07:12:01;;;;;;;;;;;18.40;62.00;;;;;;5074146;28;19928;-73
2022/10/15 07:14:27;;;;;;;;;;;18.40;62.00;;;;;;5074233;28;19966;-73
2022/10/15 07:16:52;;;;;;;;;;;18.40;62.00;;;;;;5075253;28;20015;-73
2022/10/15 07:19:18;;;;;;;;;;;18.40;62.00;;;;;;5075123;28;19935;-73
2022/10/15 07:21:43;;;;;;;;;;;17.70;61.70;;;;;;5075259;28;19921;-72
2022/10/15 07:24:09;;;;;;;;;;;18.40;62.00;;;;;;5073979;28;20132;-73
2022/10/15 07:26:34;;;;;;;;;;;18.40;62.10;;;;;;5073782;28;19947;-73
2022/10/15 07:29:00;;;;;;;;;;;18.40;62.10;;;;;;5074173;28;19920;-73
2022/10/15 07:31:26;;;;;;;;;;;18.40;62.10;;;;;;5074272;28;20308;-73
2022/10/15 07:33:51;;;;;;;;;;;18.40;62.10;;;;;;5074170;28;19932;-73
2022/10/15 07:36:19;;;;;;;;;;;18.40;62.10;;;;;;5075170;28;20439;-73
2022/10/15 07:38:45;;;;;;;;;;;18.40;62.10;;;;;;5073882;28;20015;-73
2022/10/15 07:41:10;;;;;;;;;;;18.40;62.10;;;;;;5073906;28;19955;-73
2022/10/15 07:43:36;;;;;;;;;;;18.40;62.10;;;;;;5073662;28;19924;-73
2022/10/15 07:46:02;;;;;;;;;;;18.30;62.00;;;;;;5073953;28;19920;-72
2022/10/15 07:48:28;;;;;;;;;;;18.40;62.20;;;;;;5073842;28;19920;-73
2022/10/15 07:50:57;;;;;;;;;;;18.30;62.10;;;;;;5073534;28;19970;-73
2022/10/15 07:53:23;;;;;;;;;;;18.40;62.10;;;;;;5073762;28;19999;-73
2022/10/15 07:55:49;;;;;;;;;;;18.40;62.10;;;;;;5074640;28;20015;-73
2022/10/15 07:58:15;;;;;;;;;;;18.40;62.20;;;;;;5074524;28;20288;-73
2022/10/15 08:00:40;;;;;;;;;;;18.30;62.10;;;;;;5073322;28;19927;-73
2022/10/15 08:03:06;;;;;;;;;;;18.40;62.20;;;;;;5073520;28;20014;-71
2022/10/15 08:05:32;;;;;;;;;;;18.30;62.10;;;;;;5073534;28;20433;-73
2022/10/15 08:07:57;;;;;;;;;;;18.40;62.20;;;;;;5074492;28;20292;-73
2022/10/15 08:10:23;;;;;;;;;;;18.30;62.20;;;;;;5073184;28;19920;-73
2022/10/15 08:12:49;;;;;;;;;;;18.30;62.20;;;;;;5074233;28;19932;-73
2022/10/15 08:15:14;;;;;;;;;;;18.30;62.20;;;;;;5074602;28;19928;-73
2022/10/15 08:17:40;;;;;;;;;;;18.40;62.20;;;;;;5073200;28;20018;-73
2022/10/15 08:20:05;;;;;;;;;;;18.30;62.20;;;;;;5073964;28;20325;-73
2022/10/15 08:22:32;;;;;;;;;;;18.30;62.20;;;;;;5074261;28;20391;-72
2022/10/15 08:24:57;;;;;;;;;;;18.30;62.20;;;;;;5072850;28;19921;-72
2022/10/15 08:27:23;;;;;;;;;;;18.30;62.30;;;;;;5072800;28;19927;-73
2022/10/15 08:29:48;;;;;;;;;;;18.30;62.30;;;;;;5072718;28;20166;-73
2022/10/15 08:32:14;;;;;;;;;;;18.30;62.30;;;;;;5072771;28;19921;-73
2022/10/15 08:34:39;;;;;;;;;;;18.30;62.30;;;;;;5072634;28;19920;-73
2022/10/15 08:37:05;;;;;;;;;;;18.30;62.30;;;;;;5073130;28;19920;-72
2022/10/15 08:39:30;;;;;;;;;;;18.30;62.40;;;;;;5072385;28;19931;-73
2022/10/15 08:41:58;;;;;;;;;;;18.30;62.40;;;;;;5072489;28;19920;-72
2022/10/15 08:44:26;;;;;;;;;;;18.30;62.40;;;;;;5072537;28;19920;-73
2022/10/15 08:46:54;;;;;;;;;;;18.30;62.40;;;;;;5072444;28;20368;-73
2022/10/15 08:52:13;;;;;;;;;;;18.30;62.50;;;;;;5122600;27;20398;-72
2022/10/15 08:54:39;;;;;;;;;;;18.30;62.50;;;;;;5122673;27;20016;-72
2022/10/15 08:57:12;;;;;;;;;;;18.30;62.50;;;;;;5089866;28;19962;-71
2022/10/15 08:59:42;;;;;;;;;;;18.30;62.50;;;;;;5088592;28;19921;-73
2022/10/15 09:05:07;;;;;;;;;;;18.40;62.60;;;;;;5122567;27;20419;-73
2022/10/15 09:07:38;;;;;;;;;;;18.30;62.50;;;;;;5088424;28;19927;-73
2022/10/15 09:12:52;;;;;;;;;;;18.20;62.50;;;;;;5126024;27;19912;-72
2022/10/15 09:15:19;;;;;;;;;;;18.30;62.60;;;;;;5109203;28;19964;-72
2022/10/15 09:17:46;;;;;;;;;;;18.30;62.60;;;;;;5109142;28;20333;-72
2022/10/15 09:20:15;;;;;;;;;;;18.30;62.60;;;;;;5109134;28;19927;-72
2022/10/15 09:22:40;;;;;;;;;;;18.20;62.60;;;;;;5108926;28;19920;-72
2022/10/15 09:25:13;;;;;;;;;;;18.30;62.70;;;;;;5110625;28;19927;-72
2022/10/15 09:27:38;;;;;;;;;;;18.30;62.60;;;;;;5109117;28;19927;-72
2022/10/15 09:30:09;;;;;;;;;;;18.30;62.70;;;;;;5108719;28;19920;-73
2022/10/15 09:32:39;;;;;;;;;;;18.20;62.60;;;;;;5108699;28;20330;-72
2022/10/15 09:38:05;;;;;;;;;;;18.20;62.70;;;;;;5122844;27;19912;-73
2022/10/15 09:43:11;;;;;;;;;;;18.20;62.70;;;;;;5122605;27;19913;-71
2022/10/15 09:45:37;;;;;;;;;;;18.20;62.70;;;;;;5088577;28;19921;-73
2022/10/15 09:48:12;;;;;;;;;;;18.20;62.70;;;;;;5121919;27;19924;-72
2022/10/15 09:50:41;;;;;;;;;;;18.20;62.70;;;;;;5088814;28;20150;-72
2022/10/15 09:56:05;;;;;;;;;;;18.10;62.80;;;;;;5122986;27;19912;-72
2022/10/15 09:58:42;;;;;;;;;;;18.20;62.80;;;;;;5123082;27;20375;-72
2022/10/15 10:01:16;;;;;;;;;;;18.20;62.80;;;;;;5088062;28;20018;-72
2022/10/15 10:03:42;;;;;;;;;;;18.20;62.90;;;;;;5089758;28;20400;-72
2022/10/15 10:06:09;;;;;;;;;;;18.20;62.90;;;;;;5088724;28;19955;-72
2022/10/15 10:08:37;;;;;;;;;;;18.10;62.80;;;;;;5089841;28;19943;-72
2022/10/15 10:11:05;;;;;;;;;;;18.10;62.80;;;;;;5089730;28;19920;-72
2022/10/15 10:13:32;;;;;;;;;;;18.20;62.90;;;;;;5087800;28;20368;-72
2022/10/15 10:16:14;;;;;;;;;;;18.20;62.90;;;;;;5089453;28;19920;-72
2022/10/15 10:18:41;;;;;;;;;;;18.10;62.90;;;;;;5088416;28;19966;-72
2022/10/15 10:21:25;;;;;;;;;;;18.10;62.90;;;;;;5088209;28;19926;-72
2022/10/15 10:23:50;;;;;;;;;;;18.20;62.90;;;;;;5089383;28;19927;-72
2022/10/15 10:26:16;;;;;;;;;;;18.20;63.00;;;;;;5089511;28;19924;-72
2022/10/15 10:28:57;;;;;;;;;;;18.20;63.00;;;;;;5088218;28;20419;-72
2022/10/15 10:31:27;;;;;;;;;;;18.20;63.00;;;;;;5089223;28;19974;-72
2022/10/15 10:33:53;;;;;;;;;;;18.20;63.00;;;;;;5088045;28;19985;-72
2022/10/15 10:36:20;;;;;;;;;;;18.20;63.10;;;;;;5088249;28;20370;-72
2022/10/15 10:38:54;;;;;;;;;;;18.20;63.10;;;;;;5088065;28;19920;-72
2022/10/15 10:41:20;;;;;;;;;;;18.10;63.00;;;;;;5087842;28;20212;-72
2022/10/15 10:43:54;;;;;;;;;;;18.20;63.10;;;;;;5089008;28;20174;-73
2022/10/15 10:46:21;;;;;;;;;;;18.10;63.10;;;;;;5087757;28;19943;-72
2022/10/15 10:48:48;;;;;;;;;;;18.20;63.20;;;;;;5087632;28;19925;-73
2022/10/15 10:51:18;;;;;;;;;;;18.10;63.20;;;;;;5087960;28;20320;-73
2022/10/15 10:56:29;;;;;;;;;;;18.10;63.20;;;;;;5166153;27;798366;-73
2022/10/15 10:58:56;;;;;;;;;;;18.20;63.30;;;;;;5195396;27;19925;-73
2022/10/15 11:01:22;;;;;;;;;;;18.10;63.20;;;;;;5195837;27;19953;-73
2022/10/15 11:03:49;;;;;;;;;;;18.10;63.30;;;;;;5195414;27;20440;-71
2022/10/15 11:06:19;;;;;;;;;;;18.20;63.30;;;;;;5214281;27;19963;-73
2022/10/15 11:19:46;;;;;;;;;;;18.20;63.40;;;;;;5122388;27;19919;-73
2022/10/15 11:33:15;;;;;;;;;;;18.10;63.40;;;;;;5102651;27;19913;-74
2022/10/15 11:36:00;;;;;;;;;;;18.10;63.40;;;;;;5068663;28;20144;-74
2022/10/15 11:44:09;;;;;;;;;;;18.10;63.50;;;;;;5122113;27;19912;-72
2022/10/15 11:46:46;;;;;;;;;;;18.10;63.50;;;;;;5086671;28;19924;-73
2022/10/15 11:49:32;;;;;;;;;;;18.10;63.50;;;;;;5067226;28;19943;-73
2022/10/15 11:52:10;;;;;;;;;;;18.10;63.50;;;;;;5067665;28;19978;-73
2022/10/15 11:54:42;;;;;;;;;;;18.10;63.60;;;;;;5068065;28;19928;-68
2022/10/15 11:57:09;;;;;;;;;;;18.10;63.60;;;;;;5102338;28;19925;-65
2022/10/15 12:02:18;;;;;;;;;;;18.10;64.20;;;;;;5113581;27;19960;-69
2022/10/15 12:07:24;;;;;;;;;;;18.10;65.10;;;;;;5112004;27;20292;-68
2022/10/15 12:09:52;;;;;;;;;;;18.20;65.30;;;;;;5068278;28;20058;-69
2022/10/15 12:12:24;;;;;;;;;;;18.20;65.20;;;;;;5068020;28;19998;-69
2022/10/15 12:15:04;;;;;;;;;;;18.10;65.10;;;;;;5067290;28;20377;-69
2022/10/15 12:17:48;;;;;;;;;;;18.10;65.10;;;;;;5058805;28;19924;-74
2022/10/15 12:20:16;;;;;;;;;;;18.10;65.70;;;;;;5061933;28;19920;-72
2022/10/15 12:22:58;;;;;;;;;;;17.50;65.90;;;;;;5065439;28;19920;-71
2022/10/15 12:25:40;;;;;;;;;;;18.20;66.10;;;;;;5057826;28;20468;-72
2022/10/15 12:31:01;;;;;;;;;;;18.20;66.70;;;;;;5121398;27;19912;-75
2022/10/15 12:36:08;;;;;;;;;;;18.20;66.70;;;;;;5121175;27;20299;-74
2022/10/15 12:38:36;;;;;;;;;;;18.20;66.50;;;;;;5086951;28;19927;-73
2022/10/15 12:41:07;;;;;;;;;;;18.20;66.50;;;;;;5087239;28;20268;-74
2022/10/15 12:43:34;;;;;;;;;;;18.20;66.40;;;;;;5085374;28;20382;-69
2022/10/15 12:46:01;;;;;;;;;;;18.20;66.30;;;;;;5087475;28;19920;-73
2022/10/15 12:48:29;;;;;;;;;;;18.30;66.30;;;;;;5087601;28;19970;-71
2022/10/15 12:51:14;;;;;;;;;;;18.20;66.20;;;;;;5087622;28;19935;-74
2022/10/15 12:53:41;;;;;;;;;;;18.20;66.30;;;;;;5087197;28;19954;-74
2022/10/15 13:01:27;;;;;;;;;;;18.20;66.20;;;;;;5156120;27;802239;-74
2022/10/15 13:03:53;;;;;;;;;;;18.20;66.30;;;;;;5173485;27;20404;-74
2022/10/15 13:09:04;;;;;;;;;;;18.20;66.30;;;;;;5122525;27;20371;-74
2022/10/15 13:11:31;;;;;;;;;;;18.20;66.20;;;;;;5088653;28;19920;-74
2022/10/15 13:13:59;;;;;;;;;;;18.10;66.20;;;;;;5088465;28;19970;-74
2022/10/15 13:16:25;;;;;;;;;;;18.20;66.20;;;;;;5088857;28;19921;-74
2022/10/15 13:18:51;;;;;;;;;;;18.20;66.20;;;;;;5088396;28;19921;-72
2022/10/15 13:21:17;;;;;;;;;;;18.10;66.10;;;;;;5071849;28;19920;-74
2022/10/15 13:23:45;;;;;;;;;;;18.20;66.10;;;;;;5088279;28;20015;-71
2022/10/15 13:26:20;;;;;;;;;;;18.20;66.20;;;;;;5122770;28;19985;-74
2022/10/15 13:28:47;;;;;;;;;;;18.10;66.10;;;;;;5089539;28;19928;-74
2022/10/15 13:33:58;;;;;;;;;;;18.10;66.10;;;;;;5122838;27;19912;-74
2022/10/15 13:36:26;;;;;;;;;;;18.10;66.10;;;;;;5123003;28;20019;-72
2022/10/15 13:38:53;;;;;;;;;;;18.20;66.10;;;;;;5088554;28;19966;-74
2022/10/15 13:41:29;;;;;;;;;;;18.20;66.10;;;;;;5089950;28;19924;-74
2022/10/15 13:43:57;;;;;;;;;;;18.10;66.10;;;;;;5088761;28;20272;-75
2022/10/15 13:46:25;;;;;;;;;;;18.10;66.10;;;;;;5087777;28;19924;-74
2022/10/15 13:48:55;;;;;;;;;;;18.20;66.20;;;;;;5088080;28;19924;-74
2022/10/15 13:51:21;;;;;;;;;;;18.10;66.10;;;;;;5088619;28;19927;-73
2022/10/15 13:53:46;;;;;;;;;;;18.10;66.10;;;;;;5089502;28;20384;-74
2022/10/15 13:56:22;;;;;;;;;;;18.20;66.20;;;;;;5089613;28;20003;-74
2022/10/15 13:58:47;;;;;;;;;;;18.10;66.20;;;;;;5088777;28;20441;-74
2022/10/15 14:01:15;;;;;;;;;;;18.10;66.20;;;;;;5087822;28;19920;-74
2022/10/15 14:03:49;;;;;;;;;;;18.10;66.10;;;;;;5089370;28;19921;-74
2022/10/15 14:06:17;;;;;;;;;;;18.10;66.20;;;;;;5088263;28;19921;-74
2022/10/15 14:08:43;;;;;;;;;;;18.10;66.20;;;;;;5071104;28;19938;-73
2022/10/15 14:11:10;;;;;;;;;;;18.10;66.20;;;;;;5089565;28;20007;-74
2022/10/15 14:13:42;;;;;;;;;;;18.10;66.20;;;;;;5088467;28;19931;-73
2022/10/15 14:18:55;;;;;;;;;;;18.10;66.20;;;;;;5122847;27;19912;-74
2022/10/15 14:21:27;;;;;;;;;;;17.90;66.10;;;;;;5088576;28;19920;-74
2022/10/15 14:24:02;;;;;;;;;;;18.10;66.20;;;;;;5088897;28;19920;-74
2022/10/15 14:26:27;;;;;;;;;;;18.10;66.20;;;;;;5088429;28;19920;-74
2022/10/15 14:28:54;;;;;;;;;;;18.10;66.20;;;;;;5088471;28;19927;-74
2022/10/15 14:31:27;;;;;;;;;;;18.10;66.30;;;;;;5089708;28;20295;-74
2022/10/15 14:33:53;;;;;;;;;;;18.10;66.30;;;;;;5088376;28;19920;-74
2022/10/15 14:39:17;;;;;;;;;;;18.10;66.30;;;;;;5125942;27;19912;-74
2022/10/15 14:41:53;;;;;;;;;;;18.10;66.30;;;;;;5109033;28;20014;-72
2022/10/15 14:44:19;;;;;;;;;;;18.10;66.30;;;;;;5109043;28;20011;-74
2022/10/15 14:46:48;;;;;;;;;;;18.10;66.30;;;;;;5110082;28;20035;-74
2022/10/15 14:49:19;;;;;;;;;;;18.00;66.20;;;;;;5109333;28;19942;-74
2022/10/15 14:51:51;;;;;;;;;;;18.10;66.40;;;;;;5108624;28;19920;-72
2022/10/15 14:54:20;;;;;;;;;;;18.10;66.30;;;;;;5108752;28;19939;-74
2022/10/15 14:56:47;;;;;;;;;;;18.10;66.30;;;;;;5108802;28;20080;-75
2022/10/15 14:59:16;;;;;;;;;;;18.10;66.40;;;;;;5109904;28;19920;-74
2022/10/15 15:01:50;;;;;;;;;;;18.10;66.40;;;;;;5108517;28;19920;-74
2022/10/15 15:04:31;;;;;;;;;;;18.10;66.40;;;;;;5108093;28;20367;-74
2022/10/15 15:06:57;;;;;;;;;;;18.10;66.40;;;;;;5108299;28;19920;-74
2022/10/15 15:09:22;;;;;;;;;;;18.10;66.40;;;;;;5108741;28;20015;-74
2022/10/15 15:11:48;;;;;;;;;;;18.10;66.50;;;;;;5109655;28;19920;-74
2022/10/15 15:14:22;;;;;;;;;;;18.10;66.40;;;;;;5109690;28;19927;-74
2022/10/15 15:16:48;;;;;;;;;;;17.60;66.10;;;;;;5108124;28;19971;-74
2022/10/15 15:19:13;;;;;;;;;;;18.10;66.40;;;;;;5109015;28;19978;-74
2022/10/15 15:21:39;;;;;;;;;;;18.10;66.40;;;;;;5108316;28;20007;-74
2022/10/15 15:24:05;;;;;;;;;;;18.10;66.40;;;;;;5108385;28;20317;-74
2022/10/15 15:26:30;;;;;;;;;;;18.10;66.40;;;;;;5108128;28;20570;-73
2022/10/15 15:28:56;;;;;;;;;;;18.10;66.40;;;;;;5108013;28;19923;-74
2022/10/15 15:31:21;;;;;;;;;;;18.10;66.40;;;;;;5108286;28;20057;-74
2022/10/15 15:33:47;;;;;;;;;;;18.10;66.40;;;;;;5109105;28;19920;-74
2022/10/15 15:36:13;;;;;;;;;;;18.10;66.40;;;;;;5109421;28;20010;-74
2022/10/15 15:38:39;;;;;;;;;;;18.00;66.30;;;;;;5108814;28;20014;-74
2022/10/15 15:41:21;;;;;;;;;;;18.10;66.40;;;;;;5107773;28;19961;-74
2022/10/15 15:43:47;;;;;;;;;;;18.10;66.40;;;;;;5107736;28;20364;-73
2022/10/15 15:46:13;;;;;;;;;;;18.10;66.40;;;;;;5107504;28;20120;-74